Time;durP1;ratioP1;P1;durP2;ratioP2;P2;SDS_P1;SDS_P2;PMS_P1;PMS_P2;Temp;Humidity;BMP_temperature;BMP_pressure;BME280_temperature;BME280_humidity;BME280_pressure;Samples;Min_cycle;Max_cycle;Signal;HPM_P1;HPM_P2
2023/01/23 00:01:12;;;;;;;19.60;8.15;;;5.80;99.90;;;;;;5117826;28;20031;-73
2023/01/23 00:03:38;;;;;;;14.30;7.25;;;5.80;99.90;;;;;;5117787;28;20039;-73
2023/01/23 00:06:06;;;;;;;13.68;7.57;;;5.70;99.90;;;;;;5116697;28;20052;-74
2023/01/23 00:08:33;;;;;;;18.13;7.85;;;5.70;99.90;;;;;;5117690;28;20114;-73
2023/01/23 00:10:59;;;;;;;19.40;7.85;;;5.70;99.90;;;;;;5117690;28;20036;-73
2023/01/23 00:13:25;;;;;;;14.57;7.35;;;5.70;99.90;;;;;;5117670;28;20096;-74
2023/01/23 00:15:51;;;;;;;14.85;7.13;;;5.60;99.90;;;;;;5116639;28;20032;-73
2023/01/23 00:18:19;;;;;;;16.88;7.65;;;5.70;99.90;;;;;;5117561;28;20061;-74
2023/01/23 00:20:45;;;;;;;16.92;8.23;;;5.70;99.90;;;;;;5116556;28;20050;-74
2023/01/23 00:23:11;;;;;;;15.00;7.30;;;5.70;99.90;;;;;;5117144;28;20043;-74
2023/01/23 00:25:37;;;;;;;15.70;7.57;;;5.80;99.90;;;;;;5117458;28;20043;-73
2023/01/23 00:28:03;;;;;;;19.48;8.23;;;5.80;99.90;;;;;;5116060;28;20322;-73
2023/01/23 00:30:29;;;;;;;19.02;8.60;;;5.80;99.90;;;;;;5117148;28;20442;-73
2023/01/23 00:32:54;;;;;;;15.07;7.70;;;5.70;99.90;;;;;;5117462;28;20067;-73
2023/01/23 00:35:20;;;;;;;15.50;8.00;;;5.80;99.90;;;;;;5117057;28;20336;-74
2023/01/23 00:37:46;;;;;;;16.60;6.60;;;5.80;99.90;;;;;;5117306;28;20069;-73
2023/01/23 00:40:12;;;;;;;15.68;7.03;;;5.80;99.90;;;;;;5116978;28;20044;-74
2023/01/23 00:42:38;;;;;;;14.43;7.55;;;5.80;99.90;;;;;;5117129;28;20042;-74
2023/01/23 00:45:04;;;;;;;13.77;7.65;;;5.70;99.90;;;;;;5117280;28;20055;-73
2023/01/23 00:47:30;;;;;;;16.40;7.90;;;5.70;99.90;;;;;;5117109;28;20138;-73
2023/01/23 00:49:57;;;;;;;17.90;7.45;;;5.80;99.90;;;;;;5117188;28;20460;-74
2023/01/23 00:52:24;;;;;;;14.80;7.25;;;5.80;99.90;;;;;;5116849;28;20545;-74
2023/01/23 00:54:50;;;;;;;17.67;7.03;;;5.80;99.90;;;;;;5116549;28;20440;-74
2023/01/23 00:57:16;;;;;;;15.25;7.25;;;5.80;99.90;;;;;;5117174;28;20075;-73
2023/01/23 00:59:42;;;;;;;12.30;7.80;;;5.80;99.90;;;;;;5115971;28;20043;-73
2023/01/23 01:02:07;;;;;;;16.63;8.18;;;5.70;99.90;;;;;;5116760;28;20035;-73
2023/01/23 01:04:33;;;;;;;13.80;7.35;;;5.80;99.90;;;;;;5117070;28;20047;-73
2023/01/23 01:06:59;;;;;;;13.75;6.78;;;5.70;99.90;;;;;;5116956;28;20043;-73
2023/01/23 01:09:24;;;;;;;14.35;7.53;;;5.70;99.90;;;;;;5117054;28;20050;-73
2023/01/23 01:11:50;;;;;;;16.33;7.85;;;5.70;99.90;;;;;;5116970;28;20032;-73
2023/01/23 01:14:16;;;;;;;18.95;8.48;;;5.60;99.90;;;;;;5117031;28;20036;-73
2023/01/23 01:16:44;;;;;;;16.05;7.22;;;5.70;99.90;;;;;;5116698;28;20421;-73
2023/01/23 01:19:11;;;;;;;16.48;7.95;;;5.70;99.90;;;;;;5117041;28;20042;-73
2023/01/23 01:21:38;;;;;;;19.20;7.43;;;5.70;99.90;;;;;;5116952;28;20138;-73
2023/01/23 01:24:04;;;;;;;17.88;8.90;;;5.70;99.90;;;;;;5116602;28;20066;-73
2023/01/23 01:26:29;;;;;;;13.15;7.53;;;5.70;99.90;;;;;;5116870;28;20039;-74
2023/01/23 01:28:55;;;;;;;18.02;8.52;;;5.60;99.90;;;;;;5115483;28;20054;-73
2023/01/23 01:31:21;;;;;;;12.95;8.38;;;5.60;99.90;;;;;;5115390;28;20058;-73
2023/01/23 01:33:47;;;;;;;22.02;8.63;;;5.70;99.90;;;;;;5116836;28;20047;-73
2023/01/23 01:36:16;;;;;;;17.20;8.57;;;5.60;99.90;;;;;;5116823;28;20321;-73
2023/01/23 01:38:41;;;;;;;16.73;7.88;;;5.60;99.90;;;;;;5115665;28;20337;-73
2023/01/23 01:41:08;;;;;;;16.95;8.02;;;5.60;99.90;;;;;;5116759;28;20032;-73
2023/01/23 01:43:34;;;;;;;17.52;8.30;;;5.70;99.90;;;;;;5116742;28;20047;-73
2023/01/23 01:46:24;;;;;;;20.25;8.63;;;5.70;99.90;;;;;;5116692;28;20031;-73
2023/01/23 01:49:16;;;;;;;10.70;6.97;;;5.70;99.90;;;;;;5116674;28;20031;-73
2023/01/23 01:52:03;;;;;;;16.58;7.88;;;5.70;99.90;;;;;;5116453;28;20043;-73
2023/01/23 01:54:33;;;;;;;18.08;7.78;;;5.60;99.90;;;;;;5119486;28;20036;-73
2023/01/23 01:57:14;;;;;;;13.63;7.75;;;5.60;99.90;;;;;;5119956;28;20088;-73
2023/01/23 01:59:48;;;;;;;14.75;7.47;;;5.70;99.90;;;;;;5120265;28;20136;-73
2023/01/23 02:02:18;;;;;;;12.90;7.35;;;5.70;99.90;;;;;;5118876;28;20546;-74
2023/01/23 02:04:47;;;;;;;19.55;7.93;;;5.80;99.90;;;;;;5120159;28;20085;-73
2023/01/23 02:07:38;;;;;;;16.30;7.82;;;5.80;99.90;;;;;;5119665;28;20050;-73
2023/01/23 02:10:06;;;;;;;15.63;7.95;;;5.80;99.90;;;;;;5120060;28;20055;-73
2023/01/23 02:12:34;;;;;;;16.88;8.52;;;5.80;99.90;;;;;;5119966;28;20443;-73
2023/01/23 02:15:01;;;;;;;16.30;8.70;;;5.80;99.90;;;;;;5119923;28;20035;-73
2023/01/23 02:17:29;;;;;;;13.63;7.78;;;5.80;99.90;;;;;;5119839;28;20075;-73
2023/01/23 02:20:14;;;;;;;17.00;8.52;;;5.80;99.90;;;;;;5119755;28;20044;-73
2023/01/23 02:22:54;;;;;;;16.27;9.00;;;5.80;99.90;;;;;;5119789;28;20067;-74
2023/01/23 02:25:42;;;;;;;12.55;8.18;;;5.80;99.90;;;;;;5119368;28;20035;-73
2023/01/23 02:28:09;;;;;;;16.67;9.27;;;5.80;99.90;;;;;;5119571;28;20124;-73
2023/01/23 02:30:41;;;;;;;20.25;9.10;;;5.80;99.90;;;;;;5119243;28;20093;-73
2023/01/23 02:33:30;;;;;;;17.30;8.15;;;5.90;99.90;;;;;;5118249;28;20076;-73
2023/01/23 02:35:56;;;;;;;15.90;8.27;;;5.80;99.90;;;;;;5115916;28;20061;-73
2023/01/23 02:38:28;;;;;;;15.65;8.27;;;5.80;99.90;;;;;;5119103;28;20042;-74
2023/01/23 02:40:56;;;;;;;18.40;9.18;;;5.80;99.90;;;;;;5119422;28;20039;-73
2023/01/23 02:43:25;;;;;;;18.13;9.65;;;5.70;99.90;;;;;;5119393;28;20089;-73
2023/01/23 02:45:52;;;;;;;14.27;8.50;;;5.80;99.90;;;;;;5119293;28;20101;-73
2023/01/23 02:48:18;;;;;;;16.50;8.75;;;5.60;99.90;;;;;;5119130;28;20040;-73
2023/01/23 02:50:45;;;;;;;16.27;8.50;;;5.70;99.90;;;;;;5118861;28;20089;-73
2023/01/23 02:53:11;;;;;;;15.05;8.85;;;5.80;99.90;;;;;;5119195;28;20363;-73
2023/01/23 02:55:41;;;;;;;19.73;9.55;;;5.80;99.90;;;;;;5118746;28;20111;-73
2023/01/23 03:00:51;;;;;;;18.15;10.63;;;5.80;99.90;;;;;;5119034;28;20050;-73
2023/01/23 03:03:17;;;;;;;17.98;9.75;;;5.70;99.90;;;;;;5118699;28;20114;-73
2023/01/23 03:05:43;;;;;;;18.85;9.43;;;5.80;99.90;;;;;;5118881;28;20069;-73
2023/01/23 03:08:09;;;;;;;14.93;8.73;;;5.70;99.90;;;;;;5118820;28;20046;-73
2023/01/23 03:10:35;;;;;;;16.80;8.65;;;5.80;99.90;;;;;;5118635;28;20118;-73
2023/01/23 03:13:06;;;;;;;15.68;9.30;;;5.80;99.90;;;;;;5118763;28;20032;-73
2023/01/23 03:15:32;;;;;;;22.30;10.20;;;5.80;99.90;;;;;;5118611;28;20043;-73
2023/01/23 03:17:59;;;;;;;20.83;9.63;;;5.90;99.90;;;;;;5118726;28;20107;-73
2023/01/23 03:20:25;;;;;;;16.48;8.95;;;5.90;99.90;;;;;;5118641;28;20054;-73
2023/01/23 03:22:52;;;;;;;20.10;9.70;;;5.90;99.90;;;;;;5118556;28;20114;-73
2023/01/23 03:25:17;;;;;;;23.52;9.95;;;5.80;99.90;;;;;;5118119;28;20374;-73
2023/01/23 03:27:43;;;;;;;14.38;9.15;;;5.80;99.90;;;;;;5118364;28;20043;-73
2023/01/23 03:30:14;;;;;;;21.05;9.13;;;5.90;99.90;;;;;;5118101;28;20337;-73
2023/01/23 03:32:41;;;;;;;16.58;9.68;;;5.90;99.90;;;;;;5118382;28;20043;-73
2023/01/23 03:35:09;;;;;;;19.17;9.85;;;5.90;99.90;;;;;;5118141;28;20031;-73
2023/01/23 03:37:35;;;;;;;15.55;9.30;;;5.90;99.90;;;;;;5118048;28;20036;-73
2023/01/23 03:42:46;;;;;;;16.83;9.40;;;5.90;99.90;;;;;;5116894;28;20050;-72
2023/01/23 03:45:12;;;;;;;16.13;8.77;;;5.90;99.90;;;;;;5117935;28;20044;-73
2023/01/23 03:47:38;;;;;;;22.88;9.75;;;5.90;99.90;;;;;;5117831;28;20035;-73
2023/01/23 03:50:05;;;;;;;19.60;9.95;;;5.90;99.90;;;;;;5116640;28;20079;-73
2023/01/23 03:52:30;;;;;;;15.90;8.98;;;5.80;99.90;;;;;;5117994;28;20046;-72
2023/01/23 03:54:56;;;;;;;17.40;9.55;;;5.80;99.90;;;;;;5117568;28;20036;-73
2023/01/23 03:57:22;;;;;;;18.77;9.55;;;5.70;99.90;;;;;;5117909;28;20050;-73
2023/01/23 03:59:47;;;;;;;15.95;9.52;;;5.60;99.90;;;;;;5117872;28;20040;-72
2023/01/23 04:02:13;;;;;;;18.52;9.07;;;5.60;99.90;;;;;;5117814;28;20052;-73
2023/01/23 04:04:39;;;;;;;13.85;8.65;;;5.60;99.90;;;;;;5117885;28;20039;-73
2023/01/23 04:07:05;;;;;;;19.92;9.50;;;5.60;99.90;;;;;;5117709;28;20329;-73
2023/01/23 04:09:31;;;;;;;15.55;8.60;;;5.70;99.90;;;;;;5117722;28;20035;-73
2023/01/23 04:11:58;;;;;;;21.98;9.60;;;5.80;99.90;;;;;;5117732;28;20416;-73
2023/01/23 04:14:25;;;;;;;18.20;9.00;;;5.80;99.90;;;;;;5117644;28;20509;-73
2023/01/23 04:16:52;;;;;;;20.48;9.52;;;5.80;99.90;;;;;;5116956;28;20046;-72
2023/01/23 04:19:18;;;;;;;18.17;9.63;;;5.80;99.90;;;;;;5117565;28;20413;-73
2023/01/23 04:21:48;;;;;;;13.25;8.35;;;5.90;99.90;;;;;;5117590;28;20032;-73
2023/01/23 04:24:14;;;;;;;20.38;8.85;;;5.80;99.90;;;;;;5116873;28;20281;-73
2023/01/23 04:26:40;;;;;;;21.55;8.88;;;5.80;99.90;;;;;;5117135;28;20046;-73
2023/01/23 04:29:06;;;;;;;13.20;8.52;;;5.70;99.90;;;;;;5117448;28;20036;-73
2023/01/23 04:31:32;;;;;;;12.52;8.60;;;5.70;99.90;;;;;;5116929;28;20059;-73
2023/01/23 04:33:57;;;;;;;15.90;7.97;;;5.80;99.90;;;;;;5117408;28;20301;-73
2023/01/23 04:36:23;;;;;;;13.75;7.85;;;5.70;99.90;;;;;;5117363;28;20321;-73
2023/01/23 04:38:49;;;;;;;15.15;7.65;;;5.70;99.90;;;;;;5116997;28;20051;-73
2023/01/23 04:41:20;;;;;;;19.60;8.15;;;5.70;99.90;;;;;;5117318;28;20089;-72
2023/01/23 04:43:46;;;;;;;9.48;7.32;;;5.70;99.90;;;;;;5117266;28;20039;-73
2023/01/23 04:46:11;;;;;;;13.20;7.57;;;5.70;99.90;;;;;;5117368;28;20505;-73
2023/01/23 04:48:37;;;;;;;11.13;8.05;;;5.70;99.90;;;;;;5117138;28;20039;-73
2023/01/23 04:51:03;;;;;;;15.77;7.68;;;5.70;99.90;;;;;;5117226;28;20080;-73
2023/01/23 04:53:28;;;;;;;10.48;7.47;;;5.80;99.90;;;;;;5116798;28;20073;-74
2023/01/23 04:55:54;;;;;;;14.32;8.20;;;5.80;99.90;;;;;;5117202;28;20477;-73
2023/01/23 04:58:20;;;;;;;14.13;7.65;;;5.80;99.90;;;;;;5116112;28;20510;-73
2023/01/23 05:00:46;;;;;;;20.23;8.88;;;5.90;99.90;;;;;;5117133;28;20046;-73
2023/01/23 05:03:12;;;;;;;19.48;7.78;;;5.80;99.90;;;;;;5117097;28;20113;-73
2023/01/23 05:05:38;;;;;;;17.15;8.38;;;5.90;99.90;;;;;;5117110;28;20035;-73
2023/01/23 05:08:04;;;;;;;15.43;8.15;;;5.80;99.90;;;;;;5116989;28;20051;-73
2023/01/23 05:10:29;;;;;;;15.25;8.40;;;5.80;99.90;;;;;;5115748;28;20371;-73
2023/01/23 05:12:55;;;;;;;11.43;7.65;;;5.80;99.90;;;;;;5117024;28;20070;-73
2023/01/23 05:15:21;;;;;;;16.13;8.82;;;5.70;99.90;;;;;;5116960;28;20084;-73
2023/01/23 05:17:47;;;;;;;16.77;8.40;;;5.60;99.90;;;;;;5117031;28;20085;-73
2023/01/23 05:20:13;;;;;;;22.02;9.55;;;5.60;99.90;;;;;;5116936;28;20111;-73
2023/01/23 05:22:50;;;;;;;17.95;9.32;;;5.60;99.90;;;;;;5116375;28;20388;-73
2023/01/23 05:25:18;;;;;;;14.23;8.70;;;5.60;99.90;;;;;;5116550;28;20039;-73
2023/01/23 05:27:44;;;;;;;14.95;8.85;;;5.60;99.90;;;;;;5119068;28;20054;-73
2023/01/23 05:30:10;;;;;;;14.00;8.80;;;5.70;99.90;;;;;;5120547;28;20126;-73
2023/01/23 05:32:36;;;;;;;16.83;9.50;;;5.70;99.90;;;;;;5120487;28;20433;-73
2023/01/23 05:35:01;;;;;;;16.00;8.20;;;5.70;99.90;;;;;;5120676;28;20123;-73
2023/01/23 05:37:27;;;;;;;13.73;8.82;;;5.70;99.90;;;;;;5120578;28;20035;-73
2023/01/23 05:39:52;;;;;;;11.55;7.97;;;5.70;99.90;;;;;;5119543;28;20047;-73
2023/01/23 05:42:18;;;;;;;18.08;8.52;;;5.70;99.90;;;;;;5120576;28;20040;-73
2023/01/23 05:44:44;;;;;;;14.75;8.10;;;5.50;99.90;;;;;;5120291;28;20500;-73
2023/01/23 05:47:09;;;;;;;14.52;8.57;;;5.50;99.90;;;;;;5120385;28;20332;-73
2023/01/23 05:49:35;;;;;;;15.00;8.93;;;5.50;99.90;;;;;;5119376;28;20440;-73
2023/01/23 05:52:01;;;;;;;16.35;9.63;;;5.50;99.90;;;;;;5120064;28;20031;-73
2023/01/23 05:54:26;;;;;;;19.08;9.45;;;5.40;99.90;;;;;;5120069;28;20039;-73
2023/01/23 05:56:52;;;;;;;15.32;9.40;;;5.40;99.90;;;;;;5119241;28;20036;-73
2023/01/23 05:59:17;;;;;;;19.33;9.35;;;5.40;99.90;;;;;;5120236;28;20071;-73
2023/01/23 06:01:43;;;;;;;18.33;9.98;;;5.30;99.90;;;;;;5119138;28;20043;-73
2023/01/23 06:04:09;;;;;;;17.88;10.18;;;5.40;99.90;;;;;;5120206;28;20431;-73
2023/01/23 06:06:34;;;;;;;19.60;11.30;;;5.30;99.90;;;;;;5120100;27;20032;-73
2023/01/23 06:09:00;;;;;;;23.35;10.68;;;5.30;99.90;;;;;;5119928;28;20047;-73
2023/01/23 06:11:26;;;;;;;18.15;10.27;;;5.40;99.90;;;;;;5119092;28;20039;-73
2023/01/23 06:13:51;;;;;;;20.05;10.48;;;5.50;99.90;;;;;;5119911;28;20040;-73
2023/01/23 06:16:17;;;;;;;18.08;11.57;;;5.50;99.90;;;;;;5119964;28;20071;-73
2023/01/23 06:18:43;;;;;;;16.92;9.80;;;5.50;99.90;;;;;;5119672;28;20043;-73
2023/01/23 06:21:08;;;;;;;18.02;10.68;;;5.60;99.90;;;;;;5119871;27;20044;-73
2023/01/23 06:23:34;;;;;;;18.17;10.63;;;5.60;99.90;;;;;;5119108;28;20040;-73
2023/01/23 06:26:01;;;;;;;14.45;9.68;;;5.70;99.90;;;;;;5119739;28;20325;-73
2023/01/23 06:28:27;;;;;;;14.90;10.20;;;5.70;99.90;;;;;;5119582;28;20040;-73
2023/01/23 06:30:53;;;;;;;17.52;10.35;;;5.60;99.90;;;;;;5119293;28;20353;-73
2023/01/23 06:33:19;;;;;;;13.77;9.25;;;5.60;99.90;;;;;;5119614;28;20118;-73
2023/01/23 06:35:44;;;;;;;16.88;8.88;;;5.60;99.90;;;;;;5118198;28;20074;-72
2023/01/23 06:38:10;;;;;;;17.65;9.45;;;5.50;99.90;;;;;;5117724;28;20070;-73
2023/01/23 06:40:35;;;;;;;17.67;8.63;;;5.40;99.90;;;;;;5119185;28;20329;-73
2023/01/23 06:43:01;;;;;;;16.27;9.60;;;5.40;99.90;;;;;;5119117;28;20420;-73
2023/01/23 06:45:27;;;;;;;16.73;8.80;;;5.50;99.90;;;;;;5119120;28;20106;-73
2023/01/23 06:47:52;;;;;;;16.25;9.55;;;5.50;99.90;;;;;;5118226;28;20035;-73
2023/01/23 06:50:18;;;;;;;18.35;9.65;;;5.50;99.90;;;;;;5118294;28;20035;-73
2023/01/23 06:52:44;;;;;;;18.65;9.27;;;5.50;99.90;;;;;;5119178;28;20031;-72
2023/01/23 06:55:10;;;;;;;15.57;8.45;;;5.50;99.90;;;;;;5118762;28;20035;-73
2023/01/23 06:57:35;;;;;;;19.75;8.93;;;5.40;99.90;;;;;;5118784;28;20114;-73
2023/01/23 07:00:02;;;;;;;20.75;10.05;;;5.30;99.90;;;;;;5119058;28;20039;-72
2023/01/23 07:02:27;;;;;;;19.45;10.65;;;5.30;99.90;;;;;;5118867;28;20042;-73
2023/01/23 07:04:53;;;;;;;14.63;9.13;;;5.20;99.90;;;;;;5118698;28;20039;-72
2023/01/23 07:07:19;;;;;;;21.35;10.35;;;5.20;99.90;;;;;;5118472;28;20065;-73
2023/01/23 07:09:45;;;;;;;15.10;9.88;;;5.30;99.90;;;;;;5118902;28;20040;-72
2023/01/23 07:12:11;;;;;;;14.65;9.75;;;5.20;99.90;;;;;;5118431;28;20035;-73
2023/01/23 07:14:36;;;;;;;17.17;10.15;;;5.30;99.90;;;;;;5118490;28;20103;-73
2023/01/23 07:17:02;;;;;;;24.08;11.50;;;5.20;99.90;;;;;;5118686;28;20031;-73
2023/01/23 07:19:28;;;;;;;22.45;11.63;;;5.30;99.90;;;;;;5117721;28;20042;-73
2023/01/23 07:21:53;;;;;;;20.23;10.88;;;5.30;99.90;;;;;;5118300;28;20035;-73
2023/01/23 07:24:19;;;;;;;21.90;11.23;;;5.30;99.90;;;;;;5118229;27;20075;-73
2023/01/23 07:26:45;;;;;;;17.27;10.40;;;5.30;99.90;;;;;;5118497;28;20035;-73
2023/01/23 07:29:11;;;;;;;18.92;10.25;;;5.20;99.90;;;;;;5117979;28;20050;-72
2023/01/23 07:31:37;;;;;;;19.85;9.98;;;5.30;99.90;;;;;;5118407;27;20048;-73
2023/01/23 07:34:02;;;;;;;22.80;11.45;;;5.40;99.90;;;;;;5118122;28;20092;-73
2023/01/23 07:36:29;;;;;;;17.70;9.75;;;5.50;99.90;;;;;;5118311;28;20040;-74
2023/01/23 07:38:55;;;;;;;20.48;10.95;;;5.50;99.90;;;;;;5118305;28;20055;-73
2023/01/23 07:41:21;;;;;;;21.60;11.00;;;5.50;99.90;;;;;;5118052;28;20424;-73
2023/01/23 07:43:46;;;;;;;20.20;10.73;;;5.40;99.90;;;;;;5118253;28;20085;-73
2023/01/23 07:46:12;;;;;;;21.95;10.50;;;5.40;99.90;;;;;;5117840;28;20442;-73
2023/01/23 07:48:38;;;;;;;18.95;10.38;;;5.40;99.90;;;;;;5117733;28;20126;-73
2023/01/23 07:51:05;;;;;;;18.83;9.65;;;5.40;99.90;;;;;;5115821;28;20127;-73
2023/01/23 07:53:32;;;;;;;17.23;10.23;;;5.40;99.90;;;;;;5118008;28;20038;-73
2023/01/23 07:55:58;;;;;;;22.40;11.32;;;5.30;99.90;;;;;;5117587;28;20039;-73
2023/01/23 07:58:24;;;;;;;17.25;10.10;;;5.30;99.90;;;;;;5117971;28;20047;-73
2023/01/23 08:00:50;;;;;;;23.63;10.63;;;5.20;99.90;;;;;;5117546;28;20036;-73
2023/01/23 08:03:15;;;;;;;17.33;10.18;;;5.30;99.90;;;;;;5117807;28;20086;-73
2023/01/23 08:05:41;;;;;;;19.33;10.32;;;5.30;99.90;;;;;;5117874;28;20425;-73
2023/01/23 08:08:07;;;;;;;16.45;9.60;;;5.30;99.90;;;;;;5099393;28;20416;-73
2023/01/23 08:10:34;;;;;;;16.05;9.88;;;5.20;99.90;;;;;;5117754;28;20039;-73
2023/01/23 08:12:59;;;;;;;18.80;8.85;;;5.10;99.90;;;;;;5117702;28;20040;-73
2023/01/23 08:15:25;;;;;;;19.20;9.35;;;5.20;99.90;;;;;;5117370;28;20036;-73
2023/01/23 08:17:52;;;;;;;19.35;9.57;;;5.10;99.90;;;;;;5117629;28;20047;-73
2023/01/23 08:20:18;;;;;;;15.98;9.57;;;5.20;99.90;;;;;;5117551;28;20036;-73
2023/01/23 08:22:43;;;;;;;17.27;8.50;;;5.10;99.90;;;;;;5117512;28;20058;-73
2023/01/23 08:25:10;;;;;;;16.80;8.85;;;5.00;99.90;;;;;;5117094;28;20476;-73
2023/01/23 08:27:36;;;;;;;14.15;8.38;;;4.80;99.90;;;;;;5117153;28;20071;-73
2023/01/23 08:30:02;;;;;;;13.40;8.25;;;4.80;99.90;;;;;;5117161;28;20152;-73
2023/01/23 08:32:28;;;;;;;17.05;8.10;;;4.90;99.90;;;;;;5116322;28;20401;-73
2023/01/23 08:34:54;;;;;;;14.70;8.80;;;5.00;99.90;;;;;;5115893;28;20077;-73
2023/01/23 08:37:19;;;;;;;13.40;7.68;;;5.00;99.90;;;;;;5117062;28;20421;-73
2023/01/23 08:39:45;;;;;;;11.80;7.28;;;5.00;99.90;;;;;;5117403;28;20119;-73
2023/01/23 08:42:11;;;;;;;11.65;7.32;;;5.10;99.90;;;;;;5117354;28;20044;-73
2023/01/23 08:44:36;;;;;;;15.60;7.90;;;5.10;99.90;;;;;;5117261;28;20337;-73
2023/01/23 08:47:02;;;;;;;13.55;7.30;;;5.20;99.90;;;;;;5117204;28;20043;-73
2023/01/23 08:49:28;;;;;;;11.45;7.60;;;5.30;99.90;;;;;;5117297;28;20059;-78
2023/01/23 08:51:55;;;;;;;16.70;7.78;;;5.40;99.90;;;;;;5099239;28;20039;-69
2023/01/23 08:54:21;;;;;;;15.57;7.15;;;5.40;99.90;;;;;;5116762;28;20039;-70
2023/01/23 08:56:47;;;;;;;15.43;7.57;;;5.50;99.90;;;;;;5117167;28;20040;-69
2023/01/23 08:59:12;;;;;;;12.48;7.32;;;5.40;99.90;;;;;;5116224;28;20067;-69
2023/01/23 09:01:38;;;;;;;11.57;6.82;;;5.60;99.90;;;;;;5117594;28;20043;-69
2023/01/23 09:04:04;;;;;;;14.18;7.25;;;5.60;99.90;;;;;;5121293;28;20050;-69
2023/01/23 09:06:29;;;;;;;10.60;6.88;;;5.70;99.90;;;;;;5121277;27;20122;-69
2023/01/23 09:08:55;;;;;;;13.07;7.35;;;5.70;99.90;;;;;;5121180;28;20073;-70
2023/01/23 09:11:22;;;;;;;12.50;7.30;;;5.60;99.90;;;;;;5120868;28;20045;-69
2023/01/23 09:13:48;;;;;;;10.02;6.25;;;5.60;99.90;;;;;;5121120;28;20039;-69
2023/01/23 09:16:15;;;;;;;12.65;7.03;;;5.60;99.90;;;;;;5120756;28;20042;-69
2023/01/23 09:18:40;;;;;;;10.15;6.82;;;5.80;99.90;;;;;;5119725;28;20044;-69
2023/01/23 09:21:13;;;;;;;10.80;6.75;;;5.80;99.90;;;;;;5120992;28;20047;-69
2023/01/23 09:23:38;;;;;;;10.77;6.72;;;5.80;99.90;;;;;;5120986;27;20043;-69
2023/01/23 09:26:12;;;;;;;13.00;6.53;;;5.80;99.90;;;;;;5120603;28;20043;-69
2023/01/23 09:28:40;;;;;;;9.43;6.10;;;5.80;99.90;;;;;;5119537;28;20429;-69
2023/01/23 09:31:08;;;;;;;14.60;6.85;;;5.80;99.90;;;;;;5120426;28;20055;-69
2023/01/23 09:33:34;;;;;;;10.13;6.45;;;5.90;99.90;;;;;;5120423;28;20328;-70
2023/01/23 09:36:01;;;;;;;11.38;6.05;;;5.90;99.90;;;;;;5120361;28;20122;-69
2023/01/23 09:38:26;;;;;;;11.38;6.38;;;5.90;99.90;;;;;;5120639;28;20035;-70
2023/01/23 09:40:59;;;;;;;9.40;5.97;;;5.90;99.90;;;;;;5120645;27;20485;-69
2023/01/23 09:43:54;;;;;;;9.38;6.00;;;5.90;99.90;;;;;;5120571;28;20353;-69
2023/01/23 09:46:29;;;;;;;11.13;6.55;;;6.00;99.90;;;;;;5120569;28;20036;-70
2023/01/23 09:49:29;;;;;;;9.80;6.60;;;6.10;99.90;;;;;;5120376;28;20044;-70
2023/01/23 09:51:57;;;;;;;13.70;6.53;;;6.10;99.90;;;;;;5120082;28;20482;-71
2023/01/23 09:54:45;;;;;;;10.00;6.40;;;6.10;99.90;;;;;;5120100;28;20031;-70
2023/01/23 09:57:35;;;;;;;11.20;6.72;;;6.10;99.90;;;;;;5120378;28;20039;-70
2023/01/23 10:00:10;;;;;;;13.65;6.88;;;6.10;99.90;;;;;;5116529;28;20086;-69
2023/01/23 10:02:36;;;;;;;9.07;5.78;;;6.00;99.90;;;;;;5120190;28;20042;-69
2023/01/23 10:05:01;;;;;;;12.32;7.00;;;6.10;99.90;;;;;;5120161;28;20106;-69
2023/01/23 10:07:33;;;;;;;9.73;6.15;;;6.10;99.90;;;;;;5120010;28;20088;-69
2023/01/23 10:10:36;;;;;;;9.52;6.50;;;6.00;99.90;;;;;;5120042;28;20032;-69
2023/01/23 10:13:18;;;;;;;12.10;6.55;;;6.00;99.90;;;;;;5119404;28;20036;-69
2023/01/23 10:16:12;;;;;;;10.65;7.07;;;6.00;99.90;;;;;;5119643;28;20593;-69
2023/01/23 10:18:55;;;;;;;12.18;6.88;;;6.10;99.90;;;;;;5118860;28;20381;-69
2023/01/23 10:21:42;;;;;;;13.00;7.07;;;6.20;99.90;;;;;;5119865;28;20036;-70
2023/01/23 10:24:35;;;;;;;12.10;7.65;;;6.30;99.90;;;;;;5119184;28;20057;-69
2023/01/23 10:27:21;;;;;;;14.75;8.38;;;6.30;99.90;;;;;;5118629;28;20047;-68
2023/01/23 10:30:16;;;;;;;12.57;8.25;;;6.20;99.90;;;;;;5119407;28;20086;-68
2023/01/23 10:33:00;;;;;;;18.90;9.50;;;6.10;99.90;;;;;;5119316;28;20424;-69
2023/01/23 10:35:50;;;;;;;12.45;7.97;;;6.20;99.90;;;;;;5119537;28;20043;-68
2023/01/23 10:38:50;;;;;;;13.27;8.00;;;6.30;99.90;;;;;;5119296;28;20435;-73
2023/01/23 10:41:18;;;;;;;15.82;8.80;;;6.20;99.90;;;;;;5116042;28;20063;-69
2023/01/23 10:43:55;;;;;;;15.13;8.60;;;6.20;99.90;;;;;;5119384;28;20050;-68
2023/01/23 10:46:36;;;;;;;17.70;9.35;;;6.30;99.90;;;;;;5119808;27;20043;-68
2023/01/23 10:49:03;;;;;;;15.60;9.85;;;6.30;99.90;;;;;;5119254;28;20096;-69
2023/01/23 10:51:47;;;;;;;15.80;9.90;;;6.30;99.90;;;;;;5117920;28;20333;-69
2023/01/23 10:54:25;;;;;;;16.23;10.23;;;6.30;99.90;;;;;;5118857;28;20325;-68
2023/01/23 10:57:02;;;;;;;19.92;10.18;;;6.20;99.90;;;;;;5119085;28;20032;-68
2023/01/23 10:59:32;;;;;;;17.13;10.30;;;6.10;99.90;;;;;;5119060;28;20035;-70
2023/01/23 11:02:02;;;;;;;16.80;10.13;;;6.10;99.90;;;;;;5119067;28;20044;-69
2023/01/23 11:04:33;;;;;;;19.42;10.48;;;6.00;99.90;;;;;;5119013;28;20118;-71
2023/01/23 11:07:16;;;;;;;20.73;11.50;;;6.00;99.90;;;;;;5118898;28;20042;-71
2023/01/23 11:09:49;;;;;;;19.05;10.13;;;6.00;99.90;;;;;;5118681;27;20119;-71
2023/01/23 11:12:19;;;;;;;16.98;10.05;;;6.00;99.90;;;;;;5118884;28;20446;-71
2023/01/23 11:14:47;;;;;;;18.80;11.00;;;6.00;99.90;;;;;;5119366;28;20042;-71
2023/01/23 11:17:31;;;;;;;18.27;10.60;;;6.10;99.90;;;;;;5117756;28;20035;-71
2023/01/23 11:19:58;;;;;;;17.77;10.32;;;6.20;99.90;;;;;;5118579;28;20091;-71
2023/01/23 11:22:31;;;;;;;21.63;11.05;;;6.20;99.90;;;;;;5118642;28;20054;-71
2023/01/23 11:24:57;;;;;;;19.85;10.38;;;6.30;99.90;;;;;;5117756;28;20078;-71
2023/01/23 11:27:28;;;;;;;19.63;11.32;;;6.20;99.90;;;;;;5117578;28;20436;-71
2023/01/23 11:30:38;;;;;;;18.80;10.85;;;6.30;99.90;;;;;;5117780;28;20071;-71
2023/01/23 11:33:17;;;;;;;17.35;10.65;;;6.30;99.90;;;;;;5105795;27;20427;-70
2023/01/23 11:35:58;;;;;;;19.30;10.77;;;6.30;99.90;;;;;;5138924;27;20126;-67
2023/01/23 11:38:28;;;;;;;19.35;10.60;;;6.50;99.90;;;;;;5138870;27;20039;-67
2023/01/23 11:40:54;;;;;;;20.23;10.73;;;6.30;99.90;;;;;;5138555;27;20459;-68
2023/01/23 11:43:19;;;;;;;19.08;11.73;;;6.40;99.90;;;;;;5138525;27;20070;-68
2023/01/23 11:45:51;;;;;;;19.45;10.48;;;6.40;99.90;;;;;;5138753;27;20077;-67
2023/01/23 11:48:47;;;;;;;16.73;10.10;;;6.50;99.90;;;;;;5138352;27;20039;-67
2023/01/23 11:51:12;;;;;;;19.35;10.77;;;6.50;99.90;;;;;;5138650;27;20046;-69
2023/01/23 11:54:02;;;;;;;17.63;10.13;;;6.50;99.90;;;;;;5138586;27;20039;-69
2023/01/23 11:57:09;;;;;;;19.92;11.45;;;6.60;99.90;;;;;;5138619;27;20034;-70
2023/01/23 11:59:56;;;;;;;21.45;11.52;;;6.60;99.90;;;;;;5138517;27;20111;-70
2023/01/23 12:02:30;;;;;;;16.73;9.38;;;6.60;99.90;;;;;;5138427;27;20042;-69
2023/01/23 12:05:18;;;;;;;19.15;10.30;;;6.60;99.90;;;;;;5138494;27;20038;-69
2023/01/23 12:08:11;;;;;;;19.67;10.75;;;6.40;99.90;;;;;;5138280;27;20039;-69
2023/01/23 12:10:49;;;;;;;19.95;10.60;;;6.50;99.90;;;;;;5137269;27;20313;-70
2023/01/23 12:13:51;;;;;;;20.23;10.50;;;6.40;99.90;;;;;;5138290;27;20382;-68
2023/01/23 12:16:46;;;;;;;19.90;11.23;;;6.50;99.90;;;;;;5138237;27;20096;-68
2023/01/23 12:19:38;;;;;;;18.85;10.98;;;6.50;99.90;;;;;;5138238;27;20042;-68
2023/01/23 12:22:09;;;;;;;19.00;10.65;;;6.60;99.90;;;;;;5138195;27;20430;-68
2023/01/23 12:25:00;;;;;;;19.33;10.82;;;6.50;99.90;;;;;;5137439;27;20039;-68
2023/01/23 12:27:44;;;;;;;27.55;11.68;;;6.60;99.90;;;;;;5136675;27;20043;-68
2023/01/23 12:30:37;;;;;;;18.02;10.77;;;6.60;99.90;;;;;;5137803;27;20051;-67
2023/01/23 12:33:18;;;;;;;18.95;11.68;;;6.60;99.90;;;;;;5138000;27;20036;-70
2023/01/23 12:36:08;;;;;;;20.90;11.35;;;6.40;99.90;;;;;;5137457;27;20207;-69
2023/01/23 12:38:42;;;;;;;21.17;11.20;;;6.50;99.90;;;;;;5138000;27;20344;-69
2023/01/23 12:41:36;;;;;;;20.17;11.38;;;6.40;99.90;;;;;;5136844;27;20047;-69
2023/01/23 12:44:14;;;;;;;20.13;11.00;;;6.30;99.90;;;;;;5137628;27;20091;-69
2023/01/23 12:46:57;;;;;;;18.92;10.23;;;6.40;99.90;;;;;;5137834;27;20043;-69
2023/01/23 12:49:29;;;;;;;18.75;10.70;;;6.40;99.90;;;;;;5137764;27;20045;-69
2023/01/23 12:52:33;;;;;;;18.55;10.20;;;6.50;99.90;;;;;;5137790;27;20118;-69
2023/01/23 12:55:10;;;;;;;17.83;10.25;;;6.60;99.90;;;;;;5137369;27;20038;-69
2023/01/23 12:57:42;;;;;;;19.20;10.10;;;6.50;99.90;;;;;;5137278;27;20440;-69
2023/01/23 13:00:17;;;;;;;15.10;9.35;;;6.50;99.90;;;;;;5137694;27;20050;-71
2023/01/23 13:02:59;;;;;;;20.27;11.20;;;6.50;99.90;;;;;;5137667;27;20054;-69
2023/01/23 13:05:35;;;;;;;20.08;10.63;;;6.70;99.90;;;;;;5137705;27;20042;-69
2023/01/23 13:08:13;;;;;;;18.88;10.15;;;6.80;99.90;;;;;;5137592;27;20114;-69